Tiempo atmosférico en la estación meteorológica de El Pedregal, Guadalajara (1185 m.)



Fecha
DESCASC
Temp. máxima en grados centígrados (hora)
DESCASC
Temp. mínima en grados centígrados (hora)
DESCASC
Temp. media en grados centígrados
DESCASC
Racha de viento máxima en m/sg (hora)
DESCASC
Velocidad máxima media en intervalos de 10 minutos(hora)
DESCASC
Precipitaciones diarias en mm
DESCASC
Precipitaciones de 00:00 a 06:00 en mm
DESCASC
Precipitaciones de 06:00 a 12:00 en mm
DESCASC
Precipitaciones de 12:00 a 18:00 en mm
DESCASC
Precipitaciones de 18:00 a 24:00 en mm
DESCASC
10-07-2020 27.8 (16:10) 10.5 (07:00) 19.1 8.89 (18:10) 6.11 (18:10) 0.2 0 0.2 0 0
09-07-2020 25.3 (10:20) 13.7 (22:30) 19.5 15.56 (00:30) 9.72 (00:30) 11.4 1.4 1.2 0.6 8.2
08-07-2020 33.9 (15:30) 14.6 (06:50) 24.3 12.22 (10:50) 7.78 (10:50) 0.2 0 0 0.2 0
07-07-2020 33.9 (18:00) 12.3 (06:10) 23.1 7.78 (12:30) 5 (19:30) 0 0 0 0 0
06-07-2020 29.8 (15:20) 13 (00:00) 21.4 8.89 (16:10) 4.72 (16:50) 0 0 0 0 0
05-07-2020 32.6 (16:00) 10.6 (00:00) 21.6 7.5 (17:40) 5 (17:50) 0 0 0 0 0
04-07-2020 30 (16:40) 9.3 (00:00) 19.7 10.83 (14:50) 4.17 (19:40) 0 0 0 0 0
03-07-2020 26.7 (16:50) 10.9 (03:10) 18.8 8.61 (15:30) 4.44 (19:10) 0 0 0 0 0
02-07-2020 29.6 (17:20) 13.1 (00:00) 21.4 11.94 (15:10) 5 (12:30) 0 0 0 0 0
01-07-2020 31.4 (18:30) 17.4 (00:00) 24.4 13.61 (13:30) 6.67 (12:40) 0 0 0 0 0
30-06-2020 33.9 (17:40) 14.1 (00:00) 24 11.67 (23:59) 5.56 (17:00) 0 0 0 0 0
29-06-2020 32.9 (17:40) 13.2 (00:00) 23.1 9.44 (17:10) 5.83 (22:00) 0 0 0 0 0
28-06-2020 31.9 (18:00) 13.7 (00:00) 22.8 8.33 (16:10) 4.17 (13:20) 0 0 0 0 0
27-06-2020 30.4 (19:10) 12.7 (00:00) 21.5 7.5 (14:30) 3.89 (16:20) 0 0 0 0 0
26-06-2020 29.6 (15:10) 13.3 (00:00) 21.5 11.67 (16:50) 6.94 (17:30) 0 0 0 0 0
25-06-2020 31.8 (16:00) 12.2 (00:00) 22 10 (22:40) 5.83 (22:40) 0 0 0 0 0
24-06-2020 30.6 (11:40) 14.8 (00:00) 22.7 12.5 (15:00) 7.78 (15:00) 0 0 0 0 0
23-06-2020 32.9 (17:50) 12.2 (00:00) 22.6 12.5 (20:10) 7.22 (20:20) 0 0 0 0 0
22-06-2020 30.5 (17:10) 10.4 (00:00) 20.4 8.06 (18:00) 5 (19:10) 0 0 0 0 0
21-06-2020 29.9 (18:10) 11.1 (00:00) 20.5 9.17 (19:00) 5 (20:20) 0 0 0 0 0
20-06-2020 28.2 (18:10) 9.7 (00:00) 19 9.44 (15:50) 4.72 (15:30) 0 0 0 0 0
19-06-2020 26.1 (18:00) 13.4 (00:00) 19.8 10 (16:00) 5.28 (16:00) 0 0 0 0 0
18-06-2020 23.2 (15:30) 9.7 (00:00) 16.5 8.33 (12:50) 4.72 (20:20) 0 0 0 0 0
17-06-2020 20.2 (16:30) 8.2 (00:00) 14.2 6.94 (16:40) 4.72 (21:50) 0.4 0.4 0 0 0
16-06-2020 21.2 (19:30) 10.5 (00:00) 15.9 12.5 (18:10) 6.39 (18:00) 0.6 0 0.6 0 0

Gráficas

Temp. máximas Temp. mínimas Temp. medias Precipitaciones Rachas de viento máximas Velocidades máximas media en intervalos de 10 minutos

Datos horarios

Fecha y hora oficial Temperatura (ºC) Velocidad del viento (km/h) Dirección del viento Racha (km/h) Dirección de racha Precipitación (mm) Presión (hPa) Tendencia (hPa) Humedad (%)
2020-07-15 23:00:00 15.2 5 Nordeste 16 Nordeste 0 -- -- 66
2020-07-15 22:00:00 16.7 7 Nordeste 15 Nordeste 0 -- -- 61
2020-07-15 21:00:00 19.3 11 Nordeste 23 Norte 0 -- -- 53
2020-07-15 20:00:00 23.4 10 Nordeste 23 Nordeste 0 -- -- 43
2020-07-15 19:00:00 24.1 16 Nordeste 27 Nordeste 0 -- -- 42
2020-07-15 18:00:00 24.7 14 Nordeste 29 Nordeste 0 -- -- 38
2020-07-15 17:00:00 25.3 13 Nordeste 31 Nordeste 0 -- -- 32
2020-07-15 16:00:00 25.3 9 Nordeste 19 Norte 0 -- -- 32
2020-07-15 15:00:00 24.7 8 Nordeste 19 Nordeste 0 -- -- 36
2020-07-15 14:00:00 23.2 8 Este 21 Nordeste 0 -- -- 39
2020-07-15 13:00:00 21.9 11 Nordeste 19 Nordeste 0 -- -- 42
2020-07-15 12:00:00 20.2 9 Nordeste 23 Nordeste 0 -- -- 43
2020-07-15 11:00:00 18 10 Nordeste 20 Este 0 -- -- 44
2020-07-15 10:00:00 16.6 10 Este 22 Nordeste 0 -- -- 38
2020-07-15 09:00:00 14.3 11 Este 15 Este 0 -- -- 39
2020-07-15 08:00:00 11.3 2 Este 5 Sudeste 0 -- -- 58
2020-07-15 07:00:00 8 0 Calma 5 Este 0 -- -- 76
2020-07-15 06:00:00 8.6 0 Calma 5 Oeste 0 -- -- 73
2020-07-15 05:00:00 9.1 3 Oeste 6 Sudoeste 0 -- -- 69
2020-07-15 04:00:00 9.6 0 Calma 4 Oeste 0 -- -- 69
2020-07-15 03:00:00 10.5 3 Este 10 Sudeste 0 -- -- 66
2020-07-15 02:00:00 12.4 6 Sudeste 12 Sudeste 0 -- -- 58
2020-07-15 01:00:00 13.4 8 Sudeste 13 Sudeste 0 -- -- 56
2020-07-15 00:00:00 14.6 5 Sudeste 18 Este 0 -- -- 53
2020-07-14 23:00:00 16 12 Este 17 Este 0 -- -- 46
2020-07-14 22:00:00 17.2 5 Nordeste 26 Nordeste 0 -- -- 38
2020-07-14 21:00:00 19.8 18 Nordeste 28 Norte 0 -- -- 33
2020-07-14 20:00:00 23.1 15 Nordeste 27 Nordeste 0 -- -- 34
2020-07-14 19:00:00 24.3 19 Nordeste 30 Este 0 -- -- 30
2020-07-14 18:00:00 25 16 Nordeste 29 Nordeste 0 -- -- 29
2020-07-14 17:00:00 25.6 17 Nordeste 31 Este 0 -- -- 27
2020-07-14 16:00:00 25.1 15 Nordeste 25 Nordeste 0 -- -- 28
2020-07-14 15:00:00 24.6 12 Norte 25 Norte 0 -- -- 35
2020-07-14 14:00:00 24.4 10 Nordeste 20 Este 0 -- -- 35
2020-07-14 13:00:00 23.5 10 Este 23 Este 0 -- -- 32
2020-07-14 12:00:00 22.8 9 Este 17 Este 0 -- -- 30
2020-07-14 11:00:00 20 7 Este 13 Este 0 -- -- 32
2020-07-14 10:00:00 16.8 7 Este 14 Este 0 -- -- 38
2020-07-14 09:00:00 15.5 9 Este 13 Este 0 -- -- 43
2020-07-14 08:00:00 13.9 6 Este 10 Este 0 -- -- 52
2020-07-14 07:00:00 12 0 Calma 7 Sudeste 0 -- -- 66
2020-07-14 06:00:00 12.1 4 Este 8 Este 0 -- -- 65
2020-07-14 05:00:00 11.7 0 Calma 4 Nordeste 0 -- -- 69
2020-07-14 04:00:00 12 0 Calma 5 Oeste 0 -- -- 70
2020-07-14 03:00:00 12.7 0 Calma 10 Sudeste 0 -- -- 69
2020-07-14 02:00:00 14.1 10 Sudeste 13 Sudeste 0 -- -- 63
2020-07-14 01:00:00 14.3 4 Este 13 Sudeste 0 -- -- 65
2020-07-14 00:00:00 15.6 7 Sudeste 12 Sudeste 0 -- -- 58
2020-07-13 23:00:00 16.9 7 Este 20 Este 0 -- -- 60
2020-07-13 22:00:00 18.7 10 Nordeste 24 Nordeste 0 -- -- 57
2020-07-13 21:00:00 21.6 13 Nordeste 28 Nordeste 0 -- -- 50
2020-07-13 20:00:00 25.4 19 Nordeste 26 Nordeste 0 -- -- 42
2020-07-13 19:00:00 26.7 10 Norte 22 Nordeste 0 -- -- 40
2020-07-13 18:00:00 28 10 Norte 23 Nordeste 0 -- -- 39
2020-07-13 17:00:00 27.9 11 Nordeste 23 Nordeste 0 -- -- 39
2020-07-13 16:00:00 27.3 8 Nordeste 25 Nordeste 0 -- -- 40
2020-07-13 15:00:00 26.5 9 Nordeste 23 Norte 0 -- -- 42
2020-07-13 14:00:00 25.5 11 Nordeste 22 Nordeste 0 -- -- 47
2020-07-13 13:00:00 24.7 10 Nordeste 18 Este 0 -- -- 50
2020-07-13 12:00:00 23.5 10 Nordeste 18 Nordeste 0 -- -- 58
2020-07-13 11:00:00 22.6 8 Nordeste 15 Nordeste 0 -- -- 62
2020-07-13 10:00:00 19.9 7 Este 12 Sudeste 0 -- -- 67
2020-07-13 09:00:00 17.7 5 Este 9 Este 0 -- -- 73
2020-07-13 08:00:00 13.5 0 Calma 8 Oeste 0 -- -- 91
2020-07-13 07:00:00 11.6 5 Oeste 9 Oeste 0 -- -- 91
2020-07-13 06:00:00 11.9 3 Oeste 6 Sudoeste 0 -- -- 90
2020-07-13 05:00:00 12.7 2 Sudoeste 8 Oeste 0 -- -- 87
2020-07-13 04:00:00 13.6 7 Oeste 9 Oeste 0 -- -- 87
2020-07-13 03:00:00 13.7 2 Oeste 6 Oeste 0 -- -- 88
2020-07-13 02:00:00 15.3 0 Calma 6 Este 0.2 -- -- 85
2020-07-13 01:00:00 17.5 5 Sur 14 Sudeste 0 -- -- 66
2020-07-13 00:00:00 16.6 5 Nordeste 15 Sur 0 -- -- 67
2020-07-12 23:00:00 16.3 0 Calma 11 Norte 0 -- -- 71
2020-07-12 22:00:00 18.4 5 Norte 15 Norte 0 -- -- 57
2020-07-12 21:00:00 20.8 7 Noroeste 31 Oeste 0 -- -- 44
2020-07-12 20:00:00 21.6 17 Sudoeste 31 Sudoeste 0 -- -- 41
2020-07-12 19:00:00 22 15 Sudoeste 32 Sudoeste 0 -- -- 47
2020-07-12 18:00:00 21.9 13 Sudeste 33 Sudeste 0 -- -- 59
2020-07-12 17:00:00 22.3 22 Sudeste 34 Sudeste 0.2 -- -- 58
2020-07-12 16:00:00 20.5 11 Sudeste 25 Nordeste 0.4 -- -- 67
2020-07-12 15:00:00 20.4 10 Sudeste 18 Nordeste 0.4 -- -- 61
2020-07-12 14:00:00 23.3 12 Nordeste 22 Nordeste 0 -- -- 50
2020-07-12 13:00:00 23.3 12 Nordeste 22 Norte 0 -- -- 52
2020-07-12 12:00:00 18.4 13 Norte 24 Norte 0.2 -- -- 75
2020-07-12 11:00:00 20.6 3 Sur 12 Oeste 0 -- -- 67
2020-07-12 10:00:00 18.4 9 Sur 29 Sudeste 1 -- -- 57
2020-07-12 09:00:00 20.9 3 Nordeste 10 Sur 0 -- -- 49
2020-07-12 08:00:00 16.4 2 Noroeste 4 Noroeste 0 -- -- 66
2020-07-12 07:00:00 15.3 0 Calma 9 Este 0 -- -- 69
2020-07-12 06:00:00 15.1 0 Calma 6 Nordeste 0 -- -- 72
2020-07-12 05:00:00 14.5 3 Noroeste 5 Sudoeste 0 -- -- 79
2020-07-12 04:00:00 14.9 0 Calma 7 Oeste 0 -- -- 75
2020-07-12 03:00:00 15.3 4 Oeste 5 Oeste 0 -- -- 74
2020-07-12 02:00:00 16.7 0 Calma 6 Sudoeste 0 -- -- 78
2020-07-12 01:00:00 17.7 0 Calma 6 Sur 0 -- -- 75
2020-07-12 00:00:00 18.9 3 Sudoeste 10 Sudeste 0 -- -- 70
2020-07-11 23:00:00 20.9 8 Sudeste 25 Este 0 -- -- 62
2020-07-11 22:00:00 22.9 12 Este 32 Este 0 -- -- 59
2020-07-11 21:00:00 24.7 18 Nordeste 30 Este 0 -- -- 52
2020-07-11 20:00:00 27.6 19 Este 32 Nordeste 0 -- -- 44
2020-07-11 19:00:00 28.5 19 Nordeste 30 Nordeste 0 -- -- 42
2020-07-11 18:00:00 27.6 17 Nordeste 28 Nordeste 0 -- -- 43
2020-07-11 17:00:00 29.3 6 Sudeste 23 Este 0 -- -- 32
2020-07-11 16:00:00 29 12 Este 28 Este 0 -- -- 34
2020-07-11 15:00:00 28.8 9 Nordeste 21 Este 0 -- -- 36
2020-07-11 14:00:00 28.6 11 Nordeste 23 Nordeste 0 -- -- 38
2020-07-11 13:00:00 27.5 8 Nordeste 15 Este 0 -- -- 44
2020-07-11 12:00:00 24.8 10 Este 19 Este 0 -- -- 53
2020-07-11 11:00:00 22 6 Este 14 Este 0 -- -- 62
2020-07-11 10:00:00 18.7 6 Este 11 Este 0 -- -- 76
2020-07-11 09:00:00 13.9 3 Nordeste 8 Norte 0 -- -- 97
2020-07-11 08:00:00 12.3 5 Norte 10 Norte 0 -- -- 97
2020-07-11 07:00:00 11.7 0 Calma 4 Nordeste 0 -- -- 96
2020-07-11 06:00:00 11.9 0 Calma 4 Nordeste 0 -- -- 96
2020-07-11 05:00:00 12.2 0 Calma 4 Norte 0 -- -- 95
2020-07-11 04:00:00 12.9 0 Calma 11 Nordeste 0 -- -- 94
2020-07-11 03:00:00 13.7 3 Norte 8 Norte 0 -- -- 92
2020-07-11 02:00:00 14.9 0 Calma 6 Norte 0 -- -- 91
2020-07-11 01:00:00 15.9 2 Este 7 Nordeste 0 -- -- 87
2020-07-11 00:00:00 17.2 0 Calma 11 Este 0 -- -- 81
2020-07-10 23:00:00 18.5 5 Este 19 Nordeste 0 -- -- 75
2020-07-10 22:00:00 21 4 Nordeste 14 Norte 0 -- -- 61
2020-07-10 21:00:00 22.6 10 Nordeste 18 Este 0 -- -- 56
2020-07-10 20:00:00 25.1 14 Nordeste 28 Este 0 -- -- 49
2020-07-10 19:00:00 25 19 Este 32 Este 0 -- -- 46
2020-07-10 18:00:00 25.1 14 Este 31 Este 0 -- -- 44
2020-07-10 17:00:00 24.9 3 Noroeste 22 Sudoeste 0 -- -- 42
2020-07-10 16:00:00 26.3 8 Nordeste 19 Norte 0 -- -- 38
2020-07-10 15:00:00 26.8 8 Este 24 Nordeste 0 -- -- 34
2020-07-10 14:00:00 25.7 11 Nordeste 18 Nordeste 0 -- -- 44
2020-07-10 13:00:00 25.2 5 Nordeste 18 Este 0 -- -- 49
2020-07-10 12:00:00 23.4 10 Este 16 Este 0 -- -- 54
2020-07-10 11:00:00 21.9 9 Este 24 Sudeste 0.2 -- -- 60
2020-07-10 10:00:00 19.6 8 Este 13 Este 0 -- -- 64
2020-07-10 09:00:00 18 5 Este 8 Nordeste 0 -- -- 73
2020-07-10 08:00:00 13.5 2 Noroeste 9 Oeste 0 -- -- 91
2020-07-10 07:00:00 10.5 3 Sudoeste 8 Sudoeste 0 -- -- 94
2020-07-10 06:00:00 11.4 5 Oeste 11 Oeste 0 -- -- 92
2020-07-10 05:00:00 11.9 8 Oeste 13 Sudoeste 0 -- -- 90
2020-07-10 04:00:00 12 3 Sudoeste 9 Sudoeste 0 -- -- 90
2020-07-10 03:00:00 11.8 6 Oeste 9 Oeste 0 -- -- 92
2020-07-10 02:00:00 12.9 4 Oeste 10 Sudoeste 0 -- -- 91
2020-07-10 01:00:00 13.1 4 Oeste 13 Sudeste 0 -- -- 93
2020-07-10 00:00:00 14 9 Sudeste 21 Sudeste 0 -- -- 89
2020-07-09 23:00:00 14.2 4 Sudoeste 18 Oeste 1.2 -- -- 88
2020-07-09 22:00:00 14.1 12 Oeste 42 Sudoeste 6.4 -- -- 88
2020-07-09 21:00:00 16.3 19 Sudoeste 40 Sudoeste 0.4 -- -- 76
2020-07-09 20:00:00 19.2 12 Oeste 21 Sudoeste 0 -- -- 68
2020-07-09 19:00:00 22.3 4 Noroeste 22 Norte 0.2 -- -- 52
2020-07-09 18:00:00 24.1 13 Norte 23 Norte 0 -- -- 43
2020-07-09 17:00:00 24.8 8 Norte 14 Norte 0 -- -- 47
2020-07-09 16:00:00 23.5 6 Nordeste 9 Nordeste 0 -- -- 54
2020-07-09 15:00:00 22.1 3 Nordeste 14 Sudeste 0.2 -- -- 61
2020-07-09 14:00:00 21.3 5 Sudeste 17 Este 0.4 -- -- 66
2020-07-09 13:00:00 24.6 12 Este 18 Este 0 -- -- 43
2020-07-09 12:00:00 21.8 3 Nordeste 18 Este 1 -- -- 62
2020-07-09 11:00:00 22.8 11 Este 17 Sudeste 0.2 -- -- 44
2020-07-09 10:00:00 24.6 8 Sudeste 13 Sudeste 0 -- -- 39
2020-07-09 09:00:00 21 5 Este 9 Este 0 -- -- 57
2020-07-09 08:00:00 15.9 3 Oeste 5 Oeste 0 -- -- 76
2020-07-09 07:00:00 14.6 2 Norte 14 Este 0 -- -- 81
2020-07-09 06:00:00 16.6 5 Sur 17 Norte 0 -- -- 65
2020-07-09 05:00:00 18.1 6 Noroeste 32 Sudoeste 0.2 -- -- 58
2020-07-09 04:00:00 17.7 26 Sudoeste 46 Sudoeste 1.2 -- -- 57
2020-07-09 03:00:00 18.3 2 Norte 15 Norte 0 -- -- 48
2020-07-09 02:00:00 19.2 3 Sudeste 16 Norte 0 -- -- 45
2020-07-09 01:00:00 23.5 7 Norte 56 Sudoeste 0 -- -- 33
2020-07-09 00:00:00 22.3 24 Sudoeste 39 Sudoeste 0 -- -- 42
2020-07-08 23:00:00 22.7 17 Sudeste 42 Sur 0 -- -- 39
2020-07-08 22:00:00 20.3 10 Sudeste 19 Este 0 -- -- 54
2020-07-08 21:00:00 22 17 Sudeste 26 Sudeste 0 -- -- 48
2020-07-08 20:00:00 21.6 3 Sudeste 22 Norte 0 -- -- 53
2020-07-08 19:00:00 22.6 6 Oeste 31 Noroeste 0 -- -- 51
2020-07-08 18:00:00 23.7 5 Oeste 12 Oeste 0.2 -- -- 65
2020-07-08 17:00:00 24.9 9 Sudoeste 30 Sudoeste 0 -- -- 47
2020-07-08 16:00:00 30.4 11 Este 20 Este 0 -- -- 23
2020-07-08 15:00:00 32.9 8 Sudeste 23 Este 0 -- -- 21
2020-07-08 14:00:00 32.5 8 Nordeste 20 Este 0 -- -- 24
2020-07-08 13:00:00 29.8 10 Nordeste 22 Noroeste 0 -- -- 28
2020-07-08 12:00:00 26.2 12 Oeste 40 Oeste 0 -- -- 35
2020-07-08 11:00:00 23.8 26 Oeste 44 Oeste 0 -- -- 47
2020-07-08 10:00:00 24 10 Este 27 Norte 0 -- -- 52
2020-07-08 09:00:00 23.1 4 Norte 21 Sudoeste 0 -- -- 55
2020-07-08 08:00:00 18.3 2 Nordeste 12 Oeste 0 -- -- 74
2020-07-08 07:00:00 15 6 Sudoeste 8 Oeste 0 -- -- 87
2020-07-08 06:00:00 15.8 3 Oeste 4 Sudoeste 0 -- -- 85
2020-07-08 05:00:00 16.7 0 Calma 6 Sudeste 0 -- -- 85
2020-07-08 04:00:00 17.1 4 Sudeste 5 Sudeste 0 -- -- 76
2020-07-08 03:00:00 16.7 2 Nordeste 4 Este 0 -- -- 55
2020-07-08 02:00:00 16.5 0 Calma 4 Oeste 0 -- -- 47
2020-07-08 01:00:00 17.5 2 Oeste 5 Oeste 0 -- -- 44
2020-07-08 00:00:00 19.5 0 Calma 10 Este 0 -- -- 38
2020-07-07 23:00:00 21 6 Este 16 Este 0 -- -- 34
2020-07-07 22:00:00 23.4 12 Este 24 Este 0 -- -- 31
2020-07-07 21:00:00 26.6 16 Este 28 Este 0 -- -- 29
2020-07-07 20:00:00 29.7 13 Este 26 Este 0 -- -- 29
2020-07-07 19:00:00 32.1 13 Nordeste 27 Oeste 0 -- -- 28
2020-07-07 18:00:00 33.9 7 Norte 22 Oeste 0 -- -- 25
2020-07-07 17:00:00 32.9 8 Norte 26 Noroeste 0 -- -- 27
2020-07-07 16:00:00 32 9 Norte 28 Nordeste 0 -- -- 28
2020-07-07 15:00:00 31.4 13 Norte 27 Noroeste 0 -- -- 29
2020-07-07 14:00:00 31.6 10 Norte 26 Norte 0 -- -- 30
2020-07-07 13:00:00 30 10 Oeste 28 Oeste 0 -- -- 32
2020-07-07 12:00:00 29.1 9 Noroeste 27 Oeste 0 -- -- 32
2020-07-07 11:00:00 27 13 Oeste 23 Oeste 0 -- -- 28
2020-07-07 10:00:00 24.5 10 Oeste 19 Oeste 0 -- -- 23
2020-07-07 09:00:00 21.1 11 Oeste 17 Oeste 0 -- -- 41
2020-07-07 08:00:00 17.2 2 Sudoeste 7 Noroeste 0 -- -- 60
2020-07-07 07:00:00 13.8 0 Calma 5 Oeste 0 -- -- 72
2020-07-07 06:00:00 12.5 0 Calma 6 Sudoeste 0 -- -- 77
2020-07-07 05:00:00 13.3 3 Oeste 10 Oeste 0 -- -- 74
2020-07-07 04:00:00 12.9 3 Oeste 7 Sudoeste 0 -- -- 75
2020-07-07 03:00:00 13.7 0 Calma 7 Sudeste 0 -- -- 71
2020-07-07 02:00:00 14.9 3 Sudeste 6 Sudeste 0 -- -- 68
2020-07-07 01:00:00 15.4 0 Calma 7 Sur 0 -- -- 66
2020-07-07 00:00:00 16.1 4 Este 10 Sudeste 0 -- -- 63
2020-07-06 23:00:00 17.3 5 Sudeste 13 Sudeste 0 -- -- 59
2020-07-06 22:00:00 18.7 7 Este 19 Este 0 -- -- 56
2020-07-06 21:00:00 22.7 13 Nordeste 19 Nordeste 0 -- -- 49
2020-07-06 20:00:00 26 14 Nordeste 26 Este 0 -- -- 41
2020-07-06 19:00:00 27.1 17 Nordeste 30 Nordeste 0 -- -- 41
2020-07-06 18:00:00 28.1 16 Nordeste 30 Nordeste 0 -- -- 41
2020-07-06 17:00:00 28.3 16 Nordeste 32 Nordeste 0 -- -- 41
2020-07-06 16:00:00 28.7 14 Norte 26 Nordeste 0 -- -- 39
2020-07-06 15:00:00 29.1 13 Norte 28 Nordeste 0 -- -- 36
2020-07-06 14:00:00 28.6 8 Norte 20 Nordeste 0 -- -- 39
2020-07-06 13:00:00 28.2 10 Nordeste 20 Nordeste 0 -- -- 38
2020-07-06 12:00:00 27.8 9 Nordeste 22 Nordeste 0 -- -- 40
2020-07-06 11:00:00 26.2 8 Nordeste 15 Este 0 -- -- 44
2020-07-06 10:00:00 24.6 7 Nordeste 12 Este 0 -- -- 47
2020-07-06 09:00:00 21.6 4 Este 8 Sudeste 0 -- -- 53
2020-07-06 08:00:00 17.1 0 Calma 5 Oeste 0 -- -- 68
2020-07-06 07:00:00 13 3 Oeste 4 Oeste 0 -- -- 80
2020-07-06 06:00:00 14 2 Sudoeste 5 Norte 0 -- -- 75
2020-07-06 05:00:00 16 6 Sudeste 11 Sudeste 0 -- -- 69
2020-07-06 04:00:00 16.8 6 Sudeste 14 Sudeste 0 -- -- 66
2020-07-06 03:00:00 16.8 6 Sudeste 13 Sudeste 0 -- -- 65
2020-07-06 02:00:00 16 2 Este 5 Este 0 -- -- 64
2020-07-06 01:00:00 17.5 0 Calma 4 Noroeste 0 -- -- 60
2020-07-06 00:00:00 18.2 0 Calma 4 Oeste 0 -- -- 55
2020-07-05 23:00:00 19.5 3 Oeste 9 Nordeste 0 -- -- 48
2020-07-05 22:00:00 22.9 6 Nordeste 16 Nordeste 0 -- -- 39
2020-07-05 21:00:00 26.4 13 Nordeste 26 Nordeste 0 -- -- 32
2020-07-05 20:00:00 29.5 12 Nordeste 24 Nordeste 0 -- -- 27
2020-07-05 19:00:00 30.6 13 Nordeste 26 Nordeste 0 -- -- 25
2020-07-05 18:00:00 31 14 Norte 27 Norte 0 -- -- 23
2020-07-05 17:00:00 32.4 7 Noroeste 20 Noroeste 0 -- -- 22
2020-07-05 16:00:00 32.6 9 Nordeste 24 Oeste 0 -- -- 18
2020-07-05 15:00:00 30.5 6 Sudoeste 19 Oeste 0 -- -- 18
2020-07-05 14:00:00 29.9 8 Oeste 17 Noroeste 0 -- -- 21
2020-07-05 13:00:00 29.2 9 Oeste 19 Oeste 0 -- -- 22
2020-07-05 12:00:00 28.5 5 Norte 14 Noroeste 0 -- -- 26
2020-07-05 11:00:00 26.6 6 Este 12 Sudeste 0 -- -- 28
2020-07-05 10:00:00 24.7 4 Este 9 Este 0 -- -- 33
2020-07-05 09:00:00 20.8 0 Calma 9 Sudoeste 0 -- -- 42
2020-07-05 08:00:00 15.2 4 Oeste 9 Sudoeste 0 -- -- 55
2020-07-05 07:00:00 11.7 6 Oeste 10 Sudoeste 0 -- -- 63
2020-07-05 06:00:00 12 6 Oeste 9 Sudoeste 0 -- -- 61
2020-07-05 05:00:00 11.3 0 Calma 8 Sudoeste 0 -- -- 63
2020-07-05 04:00:00 11.1 6 Oeste 8 Oeste 0 -- -- 64
2020-07-05 03:00:00 11.6 5 Oeste 6 Oeste 0 -- -- 61
2020-07-05 02:00:00 13 0 Calma 5 Este 0 -- -- 52
2020-07-05 01:00:00 13.5 0 Calma 4 Este 0 -- -- 49
2020-07-05 00:00:00 14.3 0 Calma 5 Este 0 -- -- 46
2020-07-04 23:00:00 16.8 3 Nordeste 8 Este 0 -- -- 39
2020-07-04 22:00:00 19.4 5 Nordeste 15 Nordeste 0 -- -- 33
2020-07-04 21:00:00 23.9 10 Nordeste 22 Norte 0 -- -- 26
2020-07-04 20:00:00 27.5 13 Nordeste 23 Nordeste 0 -- -- 22
2020-07-04 19:00:00 29 11 Norte 25 Norte 0 -- -- 16
2020-07-04 18:00:00 29.2 12 Norte 29 Norte 0 -- -- 16
2020-07-04 17:00:00 30 8 Norte 25 Noroeste 0 -- -- 18
2020-07-04 16:00:00 28.9 11 Noroeste 36 Norte 0 -- -- 19
2020-07-04 15:00:00 28.8 9 Norte 39 Noroeste 0 -- -- 21
2020-07-04 14:00:00 28.1 8 Noroeste 24 Oeste 0 -- -- 22
2020-07-04 13:00:00 25.9 13 Oeste 28 Oeste 0 -- -- 24
2020-07-04 12:00:00 24.9 8 Oeste 17 Sudoeste 0 -- -- 28
2020-07-04 11:00:00 23 5 Oeste 14 Noroeste 0 -- -- 32
2020-07-04 10:00:00 20.2 8 Oeste 14 Oeste 0 -- -- 48
2020-07-04 09:00:00 17.1 6 Oeste 13 Oeste 0 -- -- 58
2020-07-04 08:00:00 13.2 3 Oeste 8 Oeste 0 -- -- 73
2020-07-04 07:00:00 10 6 Oeste 10 Oeste 0 -- -- 81
2020-07-04 06:00:00 9.8 5 Sudoeste 14 Oeste 0 -- -- 81
2020-07-04 05:00:00 9.3 0 Calma 9 Oeste 0 -- -- 81
2020-07-04 04:00:00 10.5 6 Oeste 10 Oeste 0 -- -- 76
2020-07-04 03:00:00 10.3 5 Oeste 9 Oeste 0 -- -- 77
2020-07-04 02:00:00 11.2 0 Calma 4 Nordeste 0 -- -- 72
2020-07-04 01:00:00 12.5 0 Calma 6 Nordeste 0 -- -- 69
2020-07-04 00:00:00 13.5 3 Este 8 Norte 0 -- -- 65
2020-07-03 23:00:00 14.8 0 Calma 9 Sudeste 0 -- -- 60
2020-07-03 22:00:00 17.3 3 Este 18 Este 0 -- -- 52
2020-07-03 21:00:00 20.7 12 Nordeste 21 Nordeste 0 -- -- 44
2020-07-03 20:00:00 23.5 13 Nordeste 26 Nordeste 0 -- -- 40
2020-07-03 19:00:00 25 15 Nordeste 28 Norte 0 -- -- 38
2020-07-03 18:00:00 25.2 13 Norte 27 Norte 0 -- -- 38
2020-07-03 17:00:00 26.6 10 Nordeste 22 Nordeste 0 -- -- 35
2020-07-03 16:00:00 25.4 7 Nordeste 31 Norte 0 -- -- 37
2020-07-03 15:00:00 24.6 6 Este 22 Este 0 -- -- 39
2020-07-03 14:00:00 23.7 10 Nordeste 21 Nordeste 0 -- -- 41
2020-07-03 13:00:00 22.2 8 Nordeste 18 Este 0 -- -- 45
2020-07-03 12:00:00 19.5 6 Sudeste 17 Este 0 -- -- 50
2020-07-03 11:00:00 17.8 9 Este 18 Nordeste 0 -- -- 55
2020-07-03 10:00:00 15.4 12 Nordeste 19 Nordeste 0 -- -- 60
2020-07-03 09:00:00 13.6 13 Nordeste 21 Este 0 -- -- 66
2020-07-03 08:00:00 12.5 8 Este 17 Nordeste 0 -- -- 75
2020-07-03 07:00:00 11.7 7 Nordeste 19 Nordeste 0 -- -- 79
2020-07-03 06:00:00 11.5 7 Este 13 Este 0 -- -- 82
2020-07-03 05:00:00 11.4 6 Este 12 Sudeste 0 -- -- 88
2020-07-03 04:00:00 11.2 8 Este 13 Este 0 -- -- 89
2020-07-03 03:00:00 11 8 Este 13 Este 0 -- -- 90
2020-07-03 02:00:00 11.3 9 Este 14 Este 0 -- -- 90
2020-07-03 01:00:00 12 9 Nordeste 14 Nordeste 0 -- -- 86
2020-07-03 00:00:00 13.1 7 Este 14 Nordeste 0 -- -- 85
2020-07-02 23:00:00 14.7 11 Nordeste 17 Este 0 -- -- 79
2020-07-02 22:00:00 16.2 9 Nordeste 24 Norte 0 -- -- 74
2020-07-02 21:00:00 19.9 13 Nordeste 28 Nordeste 0 -- -- 61
2020-07-02 20:00:00 25.8 13 Norte 26 Oeste 0 -- -- 46
2020-07-02 19:00:00 28.9 15 Oeste 29 Sudoeste 0 -- -- 19
2020-07-02 18:00:00 28.9 17 Oeste 36 Oeste 0 -- -- 21
2020-07-02 17:00:00 29.1 16 Oeste 35 Oeste 0 -- -- 21
2020-07-02 16:00:00 28.8 15 Oeste 43 Oeste 0 -- -- 22
2020-07-02 15:00:00 28.6 16 Oeste 35 Oeste 0 -- -- 24
2020-07-02 14:00:00 27.2 10 Oeste 34 Oeste 0 -- -- 26
2020-07-02 13:00:00 27.2 17 Oeste 39 Oeste 0 -- -- 27
2020-07-02 12:00:00 27.8 7 Norte 18 Norte 0 -- -- 31
2020-07-02 11:00:00 26 8 Nordeste 14 Sudeste 0 -- -- 40
2020-07-02 10:00:00 24 8 Este 13 Nordeste 0 -- -- 45
2020-07-02 09:00:00 21.5 7 Oeste 17 Oeste 0 -- -- 43
2020-07-02 08:00:00 18.3 10 Oeste 15 Oeste 0 -- -- 52
2020-07-02 07:00:00 16.2 8 Oeste 14 Oeste 0 -- -- 56
2020-07-02 06:00:00 15.5 2 Noroeste 9 Oeste 0 -- -- 59
2020-07-02 05:00:00 15.6 7 Oeste 12 Oeste 0 -- -- 60
2020-07-02 04:00:00 14.7 3 Oeste 9 Noroeste 0 -- -- 66
2020-07-02 03:00:00 16 5 Oeste 12 Oeste 0 -- -- 70
2020-07-02 02:00:00 16.1 3 Oeste 11 Oeste 0 -- -- 68
2020-07-02 01:00:00 18.1 5 Sudoeste 12 Oeste 0 -- -- 66
2020-07-02 00:00:00 18.3 0 Calma 8 Oeste 0 -- -- 68
2020-07-01 23:00:00 20.5 0 Calma 11 Norte 0 -- -- 62
2020-07-01 22:00:00 22.7 7 Norte 19 Oeste 0 -- -- 54
2020-07-01 21:00:00 28.1 11 Oeste 30 Oeste 0 -- -- 23
2020-07-01 20:00:00 30.5 13 Oeste 37 Oeste 0 -- -- 23
2020-07-01 19:00:00 30.8 19 Oeste 39 Oeste 0 -- -- 20
2020-07-01 18:00:00 31 19 Oeste 45 Oeste 0 -- -- 21
2020-07-01 17:00:00 31 14 Oeste 36 Oeste 0 -- -- 21
2020-07-01 16:00:00 30.2 19 Sudoeste 39 Oeste 0 -- -- 23
2020-07-01 15:00:00 29.8 23 Oeste 39 Oeste 0 -- -- 23
2020-07-01 14:00:00 29.5 16 Sudoeste 49 Sudoeste 0 -- -- 24
2020-07-01 13:00:00 28.4 23 Oeste 43 Oeste 0 -- -- 24
2020-07-01 12:00:00 28.6 19 Oeste 40 Oeste 0 -- -- 24
2020-07-01 11:00:00 27.5 21 Oeste 36 Oeste 0 -- -- 31
2020-07-01 10:00:00 26 17 Oeste 28 Oeste 0 -- -- 40
2020-07-01 09:00:00 24.3 8 Oeste 14 Sudoeste 0 -- -- 45
2020-07-01 08:00:00 21.2 10 Oeste 18 Sudoeste 0 -- -- 50
2020-07-01 07:00:00 18.7 10 Oeste 18 Oeste 0 -- -- 55
2020-07-01 06:00:00 19.1 11 Oeste 15 Oeste 0 -- -- 53
2020-07-01 05:00:00 18.7 7 Oeste 13 Oeste 0 -- -- 56
2020-07-01 04:00:00 17.8 6 Oeste 10 Sudoeste 0 -- -- 61
2020-07-01 03:00:00 17.7 5 Oeste 13 Oeste 0 -- -- 60
2020-07-01 02:00:00 19.5 2 Oeste 17 Sur 0 -- -- 55
2020-07-01 01:00:00 23.2 8 Sur 28 Sudoeste 0 -- -- 44
2020-07-01 00:00:00 24.5 14 Sudoeste 42 Sudoeste 0 -- -- 44
2020-06-30 23:00:00 23.8 2 Sudoeste 19 Sur 0 -- -- 53
2020-06-30 22:00:00 25.9 8 Sur 20 Sur 0 -- -- 49
2020-06-30 21:00:00 26.8 11 Norte 26 Sudoeste 0 -- -- 51
2020-06-30 20:00:00 31.8 13 Sudoeste 31 Sudoeste 0 -- -- 24
2020-06-30 19:00:00 32.6 18 Oeste 34 Oeste 0 -- -- 24
2020-06-30 18:00:00 33.5 11 Oeste 37 Oeste 0 -- -- 23
2020-06-30 17:00:00 33.3 20 Oeste 35 Oeste 0 -- -- 22
2020-06-30 16:00:00 33.4 20 Oeste 39 Oeste 0 -- -- 19
2020-06-30 15:00:00 33.2 13 Oeste 30 Oeste 0 -- -- 20
2020-06-30 14:00:00 33.2 7 Este 22 Sudeste 0 -- -- 29
2020-06-30 13:00:00 30.8 7 Sudeste 20 Este 0 -- -- 32
2020-06-30 12:00:00 30.3 6 Sudeste 15 Este 0 -- -- 35
2020-06-30 11:00:00 26.7 4 Sudeste 13 Este 0 -- -- 45
2020-06-30 10:00:00 23.7 8 Este 14 Sudeste 0 -- -- 55
2020-06-30 09:00:00 20.1 3 Sudeste 9 Este 0 -- -- 66
2020-06-30 08:00:00 16.2 3 Sudeste 8 Sudeste 0 -- -- 90
2020-06-30 07:00:00 14.3 2 Sudeste 4 Sudeste 0 -- -- 95
2020-06-30 06:00:00 14.2 2 Nordeste 5 Sudeste 0 -- -- 94
2020-06-30 05:00:00 14.7 0 Calma 4 Nordeste 0 -- -- 92
2020-06-30 04:00:00 15.2 0 Calma 6 Sudeste 0 -- -- 90
2020-06-30 03:00:00 16.4 4 Nordeste 10 Este 0 -- -- 90
2020-06-30 02:00:00 17.9 7 Sudeste 14 Sudeste 0 -- -- 87
2020-06-30 01:00:00 19.1 9 Sudeste 17 Sudeste 0 -- -- 82
2020-06-30 00:00:00 20 12 Sudeste 18 Nordeste 0 -- -- 70
2020-06-29 23:00:00 21.3 13 Nordeste 27 Este 0 -- -- 66
2020-06-29 22:00:00 23.4 21 Este 29 Este 0 -- -- 59
2020-06-29 21:00:00 26.1 15 Este 26 Este 0 -- -- 52
2020-06-29 20:00:00 29.1 16 Este 27 Nordeste 0 -- -- 44
2020-06-29 19:00:00 27.8 15 Nordeste 28 Este 0 -- -- 47
2020-06-29 18:00:00 31.9 9 Oeste 34 Oeste 0 -- -- 25
2020-06-29 17:00:00 32.2 11 Noroeste 31 Oeste 0 -- -- 24
2020-06-29 16:00:00 31.2 18 Oeste 30 Oeste 0 -- -- 24
2020-06-29 15:00:00 31.1 16 Noroeste 34 Oeste 0 -- -- 25
2020-06-29 14:00:00 30.2 19 Oeste 32 Oeste 0 -- -- 28
2020-06-29 13:00:00 30.1 8 Este 18 Nordeste 0 -- -- 39
2020-06-29 12:00:00 28.3 5 Nordeste 15 Nordeste 0 -- -- 44
2020-06-29 11:00:00 25.3 4 Nordeste 11 Nordeste 0 -- -- 51
2020-06-29 10:00:00 21.9 6 Nordeste 10 Nordeste 0 -- -- 63
2020-06-29 09:00:00 19.2 7 Nordeste 11 Nordeste 0 -- -- 73
2020-06-29 08:00:00 15.9 5 Nordeste 6 Este 0 -- -- 88
2020-06-29 07:00:00 13.2 2 Sudoeste 4 Sudoeste 0 -- -- 92
2020-06-29 06:00:00 13.8 4 Norte 9 Sudeste 0 -- -- 93
2020-06-29 05:00:00 15 8 Sudeste 13 Sudeste 0 -- -- 90
2020-06-29 04:00:00 16.1 0 Calma 12 Este 0 -- -- 87
2020-06-29 03:00:00 16.5 4 Este 13 Este 0 -- -- 84
2020-06-29 02:00:00 17.9 6 Sudeste 10 Este 0 -- -- 79
2020-06-29 01:00:00 18.7 4 Norte 12 Norte 0 -- -- 75
2020-06-29 00:00:00 19.6 3 Nordeste 7 Sudeste 0 -- -- 70
2020-06-28 23:00:00 21.5 6 Sudeste 22 Este 0 -- -- 64
2020-06-28 22:00:00 23.2 13 Este 20 Este 0 -- -- 58
2020-06-28 21:00:00 26.1 13 Este 20 Nordeste 0 -- -- 50
2020-06-28 20:00:00 28.4 14 Este 20 Este 0 -- -- 44
2020-06-28 19:00:00 27.7 11 Norte 26 Noroeste 0 -- -- 38
2020-06-28 18:00:00 31.9 6 Noroeste 21 Oeste 0 -- -- 25
2020-06-28 17:00:00 31.2 10 Noroeste 30 Oeste 0 -- -- 26
2020-06-28 16:00:00 30.8 12 Sudoeste 26 Oeste 0 -- -- 26
2020-06-28 15:00:00 29.5 10 Sudoeste 26 Sudoeste 0 -- -- 29
2020-06-28 14:00:00 28.2 10 Oeste 28 Oeste 0 -- -- 34
2020-06-28 13:00:00 28.3 11 Noroeste 28 Oeste 0 -- -- 35
2020-06-28 12:00:00 26.5 9 Oeste 20 Sudoeste 0 -- -- 41
2020-06-28 11:00:00 24.6 6 Oeste 14 Oeste 0 -- -- 45
2020-06-28 10:00:00 22.3 6 Oeste 18 Oeste 0 -- -- 53
2020-06-28 09:00:00 19.5 12 Oeste 21 Oeste 0 -- -- 60
2020-06-28 08:00:00 17.9 9 Sudoeste 19 Oeste 0 -- -- 65
2020-06-28 07:00:00 13.7 0 Calma 15 Oeste 0 -- -- 78
2020-06-28 06:00:00 16.3 9 Oeste 17 Oeste 0 -- -- 68
2020-06-28 05:00:00 15.1 11 Oeste 15 Oeste 0 -- -- 70
2020-06-28 04:00:00 14.3 0 Calma 6 Sudoeste 0 -- -- 76
2020-06-28 03:00:00 15.1 4 Oeste 10 Oeste 0 -- -- 75
2020-06-28 02:00:00 15.8 5 Oeste 9 Oeste 0 -- -- 72
2020-06-28 01:00:00 16.9 5 Sudoeste 7 Oeste 0 -- -- 67
2020-06-28 00:00:00 18.2 2 Nordeste 5 Sudeste 0 -- -- 64
2020-06-27 23:00:00 20.1 2 Este 13 Este 0 -- -- 57
2020-06-27 22:00:00 22.3 9 Este 17 Este 0 -- -- 49
2020-06-27 21:00:00 26.1 9 Nordeste 19 Este 0 -- -- 39
2020-06-27 20:00:00 28.6 13 Este 22 Este 0 -- -- 34
2020-06-27 19:00:00 28.8 10 Oeste 26 Oeste 0 -- -- 30
2020-06-27 18:00:00 30 8 Oeste 25 Noroeste 0 -- -- 29
2020-06-27 17:00:00 28.6 10 Noroeste 27 Oeste 0 -- -- 29
2020-06-27 16:00:00 28.9 6 Norte 26 Oeste 0 -- -- 32
2020-06-27 15:00:00 26.5 6 Sudoeste 27 Oeste 0 -- -- 32
2020-06-27 14:00:00 26.5 9 Noroeste 24 Noroeste 0 -- -- 32
2020-06-27 13:00:00 25.7 8 Noroeste 19 Noroeste 0 -- -- 31
2020-06-27 12:00:00 24.7 5 Oeste 15 Oeste 0 -- -- 39
2020-06-27 11:00:00 22 6 Noroeste 18 Noroeste 0 -- -- 47
2020-06-27 10:00:00 20.3 8 Norte 17 Norte 0 -- -- 51
2020-06-27 09:00:00 18.1 7 Oeste 14 Sudoeste 0 -- -- 55
2020-06-27 08:00:00 15.2 5 Oeste 10 Oeste 0 -- -- 58
2020-06-27 07:00:00 12.7 5 Oeste 9 Oeste 0 -- -- 61
2020-06-27 06:00:00 13.2 0 Calma 13 Oeste 0 -- -- 60
2020-06-27 05:00:00 15.6 9 Oeste 16 Oeste 0 -- -- 50
2020-06-27 04:00:00 16.1 8 Oeste 15 Oeste 0 -- -- 51
2020-06-27 03:00:00 16.2 11 Oeste 15 Oeste 0 -- -- 52
2020-06-27 02:00:00 19.3 8 Oeste 18 Oeste 0 -- -- 44
2020-06-27 01:00:00 16.3 0 Calma 6 Sudoeste 0 -- -- 69
2020-06-27 00:00:00 17.1 7 Oeste 10 Oeste 0 -- -- 66
2020-06-26 23:00:00 18.6 0 Calma 10 Norte 0 -- -- 62
2020-06-26 22:00:00 19.7 3 Noroeste 13 Sur 0 -- -- 57
2020-06-26 21:00:00 24.8 9 Oeste 30 Oeste 0 -- -- 37
2020-06-26 20:00:00 27.3 17 Oeste 40 Oeste 0 -- -- 30
2020-06-26 19:00:00 28.4 15 Oeste 40 Sudoeste 0 -- -- 31
2020-06-26 18:00:00 28.2 20 Oeste 40 Oeste 0 -- -- 32
2020-06-26 17:00:00 28.5 20 Oeste 42 Oeste 0 -- -- 31
2020-06-26 16:00:00 28.4 19 Sudoeste 38 Sudoeste 0 -- -- 33
2020-06-26 15:00:00 29.5 6 Este 23 Este 0 -- -- 34
2020-06-26 14:00:00 26.7 9 Sudoeste 22 Noroeste 0 -- -- 38
2020-06-26 13:00:00 27.2 10 Noroeste 25 Oeste 0 -- -- 38
2020-06-26 12:00:00 26.9 10 Oeste 23 Oeste 0 -- -- 37
2020-06-26 11:00:00 26.9 4 Nordeste 16 Este 0 -- -- 38
2020-06-26 10:00:00 22.7 6 Norte 13 Norte 0 -- -- 43
2020-06-26 09:00:00 21.4 6 Nordeste 11 Nordeste 0 -- -- 47
2020-06-26 08:00:00 17.4 4 Norte 9 Norte 0 -- -- 53
2020-06-26 07:00:00 15 0 Calma 10 Norte 0 -- -- 56
2020-06-26 06:00:00 13.3 2 Nordeste 9 Sur 0 -- -- 68
2020-06-26 05:00:00 15.1 5 Sudeste 12 Sur 0 -- -- 61
2020-06-26 04:00:00 13.9 0 Calma 8 Sudeste 0 -- -- 71
2020-06-26 03:00:00 14.4 6 Sudeste 15 Sudeste 0 -- -- 82
2020-06-26 02:00:00 15.5 8 Sudeste 18 Sudeste 0 -- -- 85
2020-06-26 01:00:00 17.2 7 Sudeste 20 Norte 0 -- -- 70
2020-06-26 00:00:00 17.7 10 Norte 29 Norte 0 -- -- 77
2020-06-25 23:00:00 24.1 12 Sudeste 36 Sur 0 -- -- 44
2020-06-25 22:00:00 20.1 3 Sur 8 Sudeste 0 -- -- 58
2020-06-25 21:00:00 21.5 2 Norte 14 Norte 0 -- -- 56
2020-06-25 20:00:00 22.6 13 Norte 31 Nordeste 0 -- -- 55
2020-06-25 19:00:00 28.2 15 Nordeste 24 Norte 0 -- -- 42
2020-06-25 18:00:00 30.8 11 Sur 30 Oeste 0 -- -- 37
2020-06-25 17:00:00 31.7 11 Sur 33 Sudoeste 0 -- -- 24
2020-06-25 16:00:00 31.8 15 Sudoeste 30 Oeste 0 -- -- 24
2020-06-25 15:00:00 30.3 13 Sudoeste 29 Sur 0 -- -- 26
2020-06-25 14:00:00 30.8 9 Sudoeste 26 Este 0 -- -- 25
2020-06-25 13:00:00 30 9 Sur 27 Este 0 -- -- 27
2020-06-25 12:00:00 29.5 6 Sur 21 Este 0 -- -- 30
2020-06-25 11:00:00 28 8 Este 19 Este 0 -- -- 36
2020-06-25 10:00:00 24.9 8 Este 13 Este 0 -- -- 47
2020-06-25 09:00:00 21.6 2 Este 7 Este 0 -- -- 50
2020-06-25 08:00:00 16.3 2 Oeste 8 Oeste 0 -- -- 69
2020-06-25 07:00:00 12.8 2 Oeste 12 Sudoeste 0 -- -- 77
2020-06-25 06:00:00 13.3 4 Oeste 12 Oeste 0 -- -- 74
2020-06-25 05:00:00 12.4 5 Oeste 9 Oeste 0 -- -- 78
2020-06-25 04:00:00 13.4 3 Oeste 7 Oeste 0 -- -- 74
2020-06-25 03:00:00 14.8 7 Sudoeste 11 Oeste 0 -- -- 68
2020-06-25 02:00:00 14.5 4 Sudoeste 9 Oeste 0 -- -- 71
2020-06-25 01:00:00 15.4 2 Noroeste 11 Sudeste 0 -- -- 70
2020-06-25 00:00:00 17.7 2 Sudeste 15 Nordeste 0 -- -- 60
2020-06-24 23:00:00 18.8 3 Sudeste 10 Sudoeste 0 -- -- 54
2020-06-24 22:00:00 20.1 2 Sudoeste 7 Sur 0 -- -- 52
2020-06-24 21:00:00 22.7 4 Sur 19 Sudeste 0 -- -- 44
2020-06-24 20:00:00 24.8 6 Sur 23 Sudeste 0 -- -- 41
2020-06-24 19:00:00 23.9 15 Este 28 Este 0 -- -- 46
2020-06-24 18:00:00 21 17 Este 33 Este 0 -- -- 57
2020-06-24 17:00:00 24.5 0 Calma 28 Oeste 0 -- -- 39
2020-06-24 16:00:00 24.7 23 Oeste 45 Oeste 0 -- -- 38
2020-06-24 15:00:00 24.9 28 Oeste 45 Oeste 0 -- -- 43
2020-06-24 14:00:00 26.6 17 Oeste 28 Oeste 0 -- -- 35
2020-06-24 13:00:00 28.3 10 Noroeste 23 Oeste 0 -- -- 31
2020-06-24 12:00:00 30 5 Norte 18 Noroeste 0 -- -- 31
2020-06-24 11:00:00 27.9 5 Sudoeste 15 Sudoeste 0 -- -- 35
2020-06-24 10:00:00 25.3 3 Este 14 Este 0 -- -- 48
2020-06-24 09:00:00 22.8 7 Este 12 Este 0 -- -- 51
2020-06-24 08:00:00 18.8 3 Sudeste 9 Este 0 -- -- 63
2020-06-24 07:00:00 16.7 3 Nordeste 23 Sudoeste 0 -- -- 69
2020-06-24 06:00:00 17.3 10 Oeste 21 Sudoeste 0 -- -- 71
2020-06-24 05:00:00 15.2 2 Norte 8 Norte 0 -- -- 83
2020-06-24 04:00:00 15.4 4 Oeste 11 Oeste 0 -- -- 81
2020-06-24 03:00:00 16.1 4 Oeste 12 Oeste 0 -- -- 79
2020-06-24 02:00:00 16.4 5 Oeste 9 Oeste 0 -- -- 78
2020-06-24 01:00:00 16.6 3 Oeste 5 Sur 0 -- -- 76
2020-06-24 00:00:00 17.8 0 Calma 5 Oeste 0 -- -- 70
2020-06-23 23:00:00 19.6 2 Oeste 10 Nordeste 0 -- -- 63
2020-06-23 22:00:00 21.2 4 Norte 21 Sudeste 0 -- -- 56
2020-06-23 21:00:00 23.9 15 Sudeste 45 Este 0 -- -- 48
2020-06-23 20:00:00 27.6 13 Nordeste 21 Nordeste 0 -- -- 39
2020-06-23 19:00:00 29 9 Nordeste 33 Nordeste 0 -- -- 35
2020-06-23 18:00:00 30.9 7 Noroeste 18 Norte 0 -- -- 26
2020-06-23 17:00:00 31.3 10 Noroeste 23 Noroeste 0 -- -- 24
2020-06-23 16:00:00 30.4 9 Oeste 24 Noroeste 0 -- -- 25
2020-06-23 15:00:00 31 9 Sur 35 Sudoeste 0 -- -- 25
2020-06-23 14:00:00 30.5 12 Oeste 31 Noroeste 0 -- -- 24
2020-06-23 13:00:00 30.9 6 Noroeste 20 Oeste 0 -- -- 25
2020-06-23 12:00:00 30.2 6 Nordeste 15 Este 0 -- -- 29
2020-06-23 11:00:00 28.4 5 Este 14 Este 0 -- -- 40
2020-06-23 10:00:00 24.7 5 Este 13 Este 0 -- -- 49
2020-06-23 09:00:00 21 6 Sudeste 10 Este 0 -- -- 59
2020-06-23 08:00:00 16.5 0 Calma 4 Este 0 -- -- 73
2020-06-23 07:00:00 12.8 2 Norte 13 Oeste 0 -- -- 85
2020-06-23 06:00:00 13 3 Sudoeste 10 Sudoeste 0 -- -- 84
2020-06-23 05:00:00 12.4 4 Sudoeste 6 Oeste 0 -- -- 86
2020-06-23 04:00:00 12.7 0 Calma 5 Oeste 0 -- -- 77
2020-06-23 03:00:00 13.3 2 Oeste 8 Oeste 0 -- -- 74
2020-06-23 02:00:00 14.3 7 Oeste 10 Oeste 0 -- -- 70
2020-06-23 01:00:00 14.7 4 Sudoeste 6 Oeste 0 -- -- 68
2020-06-23 00:00:00 16.5 2 Este 6 Sudoeste 0 -- -- 62
2020-06-22 23:00:00 18.4 3 Norte 6 Este 0 -- -- 55
2020-06-22 22:00:00 20.9 4 Nordeste 17 Norte 0 -- -- 48
2020-06-22 21:00:00 25 13 Nordeste 23 Nordeste 0 -- -- 38
2020-06-22 20:00:00 28.2 12 Nordeste 29 Nordeste 0 -- -- 33
2020-06-22 19:00:00 28.7 14 Nordeste 29 Nordeste 0 -- -- 32
2020-06-22 18:00:00 29.8 18 Nordeste 29 Este 0 -- -- 31
2020-06-22 17:00:00 29.8 9 Oeste 28 Norte 0 -- -- 28
2020-06-22 16:00:00 29.2 10 Norte 24 Noroeste 0 -- -- 28
2020-06-22 15:00:00 28.2 10 Oeste 23 Oeste 0 -- -- 30
2020-06-22 14:00:00 27.3 6 Nordeste 16 Nordeste 0 -- -- 32
2020-06-22 13:00:00 26.8 7 Nordeste 15 Nordeste 0 -- -- 38
2020-06-22 12:00:00 25 8 Nordeste 14 Norte 0 -- -- 42
2020-06-22 11:00:00 22.8 5 Nordeste 13 Nordeste 0 -- -- 48
2020-06-22 10:00:00 20.3 5 Este 17 Nordeste 0 -- -- 55
2020-06-22 09:00:00 17.5 8 Nordeste 15 Este 0 -- -- 61
2020-06-22 08:00:00 13.8 0 Calma 3 Nordeste 0 -- -- 75
2020-06-22 07:00:00 10.5 2 Oeste 5 Este 0 -- -- 84
2020-06-22 06:00:00 12.2 0 Calma 12 Este 0 -- -- 78
2020-06-22 05:00:00 11.7 5 Este 11 Sudeste 0 -- -- 79
2020-06-22 04:00:00 11.7 5 Este 13 Este 0 -- -- 78
2020-06-22 03:00:00 13.1 9 Sudeste 13 Sudeste 0 -- -- 72
2020-06-22 02:00:00 13.4 7 Sudeste 14 Sudeste 0 -- -- 69
2020-06-22 01:00:00 14.5 8 Sudeste 12 Este 0 -- -- 64
2020-06-22 00:00:00 15.9 9 Este 17 Este 0 -- -- 60
2020-06-21 23:00:00 17.7 12 Este 19 Nordeste 0 -- -- 56
2020-06-21 22:00:00 19.5 8 Nordeste 25 Nordeste 0 -- -- 51
2020-06-21 21:00:00 23.2 13 Nordeste 30 Nordeste 0 -- -- 42
2020-06-21 20:00:00 27.7 12 Norte 30 Norte 0 -- -- 28
2020-06-21 19:00:00 28.6 15 Noroeste 33 Noroeste 0 -- -- 26
2020-06-21 18:00:00 29.6 10 Noroeste 23 Noroeste 0 -- -- 24
2020-06-21 17:00:00 28.8 13 Oeste 29 Oeste 0 -- -- 25
2020-06-21 16:00:00 29 10 Noroeste 28 Oeste 0 -- -- 29
2020-06-21 15:00:00 28.6 8 Noroeste 27 Oeste 0 -- -- 30
2020-06-21 14:00:00 27.7 6 Norte 22 Noroeste 0 -- -- 32
2020-06-21 13:00:00 26.4 10 Oeste 21 Noroeste 0 -- -- 37
2020-06-21 12:00:00 26.1 8 Noroeste 17 Noroeste 0 -- -- 39
2020-06-21 11:00:00 25.6 7 Nordeste 14 Nordeste 0 -- -- 43
2020-06-21 10:00:00 22.8 5 Nordeste 11 Nordeste 0 -- -- 49
2020-06-21 09:00:00 19.6 2 Norte 9 Oeste 0 -- -- 56
2020-06-21 08:00:00 15.1 6 Oeste 11 Oeste 0 -- -- 75
2020-06-21 07:00:00 11.7 9 Oeste 12 Oeste 0 -- -- 84
2020-06-21 06:00:00 11.2 0 Calma 9 Oeste 0 -- -- 88
2020-06-21 05:00:00 11.9 7 Oeste 12 Oeste 0 -- -- 84
2020-06-21 04:00:00 12.8 6 Oeste 9 Oeste 0 -- -- 82
2020-06-21 03:00:00 13.2 6 Oeste 10 Oeste 0 -- -- 81
2020-06-21 02:00:00 13.9 2 Oeste 6 Oeste 0 -- -- 77
2020-06-21 01:00:00 14.7 3 Oeste 7 Oeste 0 -- -- 73
2020-06-21 00:00:00 15.4 3 Oeste 8 Oeste 0 -- -- 63
2020-06-20 23:00:00 17.5 4 Noroeste 9 Oeste 0 -- -- 45
2020-06-20 22:00:00 20.3 6 Oeste 14 Noroeste 0 -- -- 41
2020-06-20 21:00:00 25.4 8 Noroeste 21 Oeste 0 -- -- 30
2020-06-20 20:00:00 27.2 14 Noroeste 27 Oeste 0 -- -- 27
2020-06-20 19:00:00 26.4 10 Oeste 27 Oeste 0 -- -- 29
2020-06-20 18:00:00 27.6 14 Noroeste 33 Oeste 0 -- -- 27
2020-06-20 17:00:00 27.5 12 Noroeste 32 Oeste 0 -- -- 25
2020-06-20 16:00:00 27 13 Oeste 34 Oeste 0 -- -- 27
2020-06-20 15:00:00 26.7 10 Oeste 31 Oeste 0 -- -- 30
2020-06-20 14:00:00 26.7 9 Noroeste 25 Oeste 0 -- -- 32
2020-06-20 13:00:00 25.5 7 Oeste 24 Oeste 0 -- -- 31
2020-06-20 12:00:00 24.6 8 Oeste 17 Oeste 0 -- -- 31
2020-06-20 11:00:00 23 6 Noroeste 17 Oeste 0 -- -- 44
2020-06-20 10:00:00 21.1 6 Oeste 13 Noroeste 0 -- -- 46
2020-06-20 09:00:00 18.6 4 Oeste 10 Oeste 0 -- -- 57
2020-06-20 08:00:00 13.3 0 Calma 9 Sudoeste 0 -- -- 75
2020-06-20 07:00:00 10 6 Oeste 11 Oeste 0 -- -- 83
2020-06-20 06:00:00 10.6 8 Oeste 11 Sudoeste 0 -- -- 79
2020-06-20 05:00:00 12.5 4 Oeste 13 Norte 0 -- -- 71
2020-06-20 04:00:00 15.3 5 Oeste 19 Oeste 0 -- -- 60
2020-06-20 03:00:00 14 5 Oeste 24 Sudoeste 0 -- -- 56
2020-06-20 02:00:00 13.9 4 Oeste 9 Oeste 0 -- -- 60
2020-06-20 01:00:00 14.7 9 Oeste 12 Oeste 0 -- -- 59
2020-06-20 00:00:00 15.2 4 Oeste 9 Oeste 0 -- -- 56
2020-06-19 23:00:00 16.1 8 Oeste 10 Oeste 0 -- -- 56
2020-06-19 22:00:00 18.5 5 Oeste 19 Oeste 0 -- -- 49
2020-06-19 21:00:00 23.2 10 Oeste 27 Oeste 0 -- -- 35
2020-06-19 20:00:00 23.7 14 Oeste 25 Oeste 0 -- -- 36
2020-06-19 19:00:00 25.6 18 Oeste 34 Oeste 0 -- -- 32
2020-06-19 18:00:00 26.1 10 Oeste 31 Oeste 0 -- -- 32
2020-06-19 17:00:00 25.9 10 Oeste 32 Oeste 0 -- -- 33
2020-06-19 16:00:00 24.3 19 Oeste 36 Oeste 0 -- -- 33
2020-06-19 15:00:00 24.5 15 Oeste 32 Oeste 0 -- -- 34
2020-06-19 14:00:00 22.8 15 Noroeste 32 Noroeste 0 -- -- 40
2020-06-19 13:00:00 23.4 10 Oeste 25 Oeste 0 -- -- 43
2020-06-19 12:00:00 22.8 4 Noroeste 16 Sudoeste 0 -- -- 49
2020-06-19 11:00:00 21.1 6 Noroeste 14 Nordeste 0 -- -- 57
2020-06-19 10:00:00 20 4 Nordeste 11 Este 0 -- -- 64
2020-06-19 09:00:00 17.3 4 Este 12 Sudeste 0 -- -- 75
2020-06-19 08:00:00 14.6 3 Oeste 13 Sudeste 0 -- -- 89
2020-06-19 07:00:00 13.6 8 Este 13 Este 0 -- -- 94
2020-06-19 06:00:00 13.5 5 Este 20 Este 0 -- -- 93
2020-06-19 05:00:00 13.7 10 Sudeste 17 Sudeste 0 -- -- 93
2020-06-19 04:00:00 14 11 Sudeste 17 Sudeste 0 -- -- 91
2020-06-19 03:00:00 14.4 6 Este 15 Nordeste 0 -- -- 89
2020-06-19 02:00:00 14.6 10 Este 18 Nordeste 0 -- -- 85
2020-06-19 01:00:00 14.9 9 Nordeste 20 Nordeste 0 -- -- 84
2020-06-19 00:00:00 14.1 12 Nordeste 25 Nordeste 0 -- -- 85
2020-06-18 23:00:00 15 13 Nordeste 24 Este 0 -- -- 79
2020-06-18 22:00:00 15.7 14 Nordeste 26 Este 0 -- -- 76
2020-06-18 21:00:00 17.3 14 Nordeste 27 Nordeste 0 -- -- 69
2020-06-18 20:00:00 21.7 12 Nordeste 22 Nordeste 0 -- -- 54
2020-06-18 19:00:00 20.1 15 Nordeste 24 Nordeste 0 -- -- 58
2020-06-18 18:00:00 22 10 Nordeste 20 Nordeste 0 -- -- 49
2020-06-18 17:00:00 21.1 13 Nordeste 26 Nordeste 0 -- -- 52
2020-06-18 16:00:00 21 10 Norte 22 Oeste 0 -- -- 47
2020-06-18 15:00:00 21.8 12 Norte 28 Noroeste 0 -- -- 48
2020-06-18 14:00:00 21.3 15 Oeste 27 Oeste 0 -- -- 40
2020-06-18 13:00:00 21.5 11 Oeste 30 Oeste 0 -- -- 39
2020-06-18 12:00:00 20.7 10 Oeste 22 Noroeste 0 -- -- 46
2020-06-18 11:00:00 20 9 Oeste 26 Oeste 0 -- -- 48
2020-06-18 10:00:00 17.9 4 Nordeste 8 Norte 0 -- -- 65
2020-06-18 09:00:00 12.9 2 Noroeste 7 Sudeste 0 -- -- 94
2020-06-18 08:00:00 10.6 5 Sudeste 11 Sudeste 0 -- -- 96
2020-06-18 07:00:00 10.1 0 Calma 9 Norte 0 -- -- 96
2020-06-18 06:00:00 9.9 4 Nordeste 9 Nordeste 0 -- -- 95
2020-06-18 05:00:00 11.5 4 Sudeste 12 Este 0 -- -- 93
2020-06-18 04:00:00 12 4 Sudeste 11 Este 0 -- -- 91
2020-06-18 03:00:00 12 3 Sudeste 13 Este 0 -- -- 81
2020-06-18 02:00:00 11.8 8 Este 14 Este 0 -- -- 78
2020-06-18 01:00:00 10.8 9 Este 18 Nordeste 0 -- -- 83
2020-06-18 00:00:00 12 11 Nordeste 22 Nordeste 0 -- -- 79
2020-06-17 23:00:00 13.3 11 Este 20 Este 0 -- -- 71
2020-06-17 22:00:00 14.7 15 Este 22 Este 0 -- -- 65
2020-06-17 21:00:00 17.4 10 Nordeste 14 Este 0 -- -- 56
2020-06-17 20:00:00 18.4 10 Norte 18 Nordeste 0 -- -- 49
2020-06-17 19:00:00 17.9 8 Nordeste 19 Este 0 -- -- 49
2020-06-17 18:00:00 17.6 8 Nordeste 16 Este 0 -- -- 52
2020-06-17 17:00:00 17.7 9 Nordeste 25 Nordeste 0 -- -- 51
2020-06-17 16:00:00 17.8 11 Nordeste 23 Nordeste 0 -- -- 51
2020-06-17 15:00:00 17.3 5 Noroeste 20 Sudoeste 0 -- -- 52
2020-06-17 14:00:00 18.4 6 Noroeste 20 Oeste 0 -- -- 48
2020-06-17 13:00:00 18.3 6 Norte 18 Noroeste 0 -- -- 47
2020-06-17 12:00:00 16.7 7 Nordeste 16 Norte 0 -- -- 54
2020-06-17 11:00:00 15.3 5 Norte 14 Norte 0 -- -- 65
2020-06-17 10:00:00 13.8 7 Este 13 Sudeste 0 -- -- 76
2020-06-17 09:00:00 9.9 8 Este 12 Este 0 -- -- 93
2020-06-17 08:00:00 9.2 6 Este 9 Este 0 -- -- 95
2020-06-17 07:00:00 8.6 4 Nordeste 9 Nordeste 0 -- -- 96
2020-06-17 06:00:00 8.5 2 Nordeste 4 Nordeste 0 -- -- 95
2020-06-17 05:00:00 8.3 0 Calma 9 Nordeste 0 -- -- 94
2020-06-17 04:00:00 9.3 3 Este 7 Este 0 -- -- 93
2020-06-17 03:00:00 9.3 3 Este 8 Sudeste 0 -- -- 92
2020-06-17 02:00:00 10.3 3 Sudeste 12 Sudeste 0.4 -- -- 86
2020-06-17 01:00:00 11.6 7 Este 15 Este 0 -- -- 82
2020-06-17 00:00:00 11.2 5 Sudeste 16 Sudeste 0 -- -- 84
2020-06-16 23:00:00 11.3 6 Este 12 Este 0 -- -- 84
2020-06-16 22:00:00 14.6 3 Noroeste 29 Noroeste 0 -- -- 59
2020-06-16 21:00:00 16.3 12 Noroeste 30 Noroeste 0 -- -- 57
2020-06-16 20:00:00 19.2 18 Oeste 33 Oeste 0 -- -- 40
2020-06-16 19:00:00 19.3 17 Noroeste 45 Oeste 0 -- -- 43
2020-06-16 18:00:00 20.3 23 Oeste 39 Oeste 0 -- -- 41
2020-06-16 17:00:00 19.8 13 Oeste 41 Oeste 0 -- -- 47
2020-06-16 16:00:00 19.4 19 Oeste 38 Oeste 0 -- -- 44
2020-06-16 15:00:00 18.4 16 Oeste 36 Oeste 0 -- -- 54
2020-06-16 14:00:00 16.6 6 Noroeste 21 Noroeste 0 -- -- 61
2020-06-16 13:00:00 12.6 10 Noroeste 17 Oeste 0 -- -- 73
2020-06-16 12:00:00 12.3 9 Noroeste 15 Noroeste 0 -- -- 85
2020-06-16 11:00:00 11.7 5 Noroeste 15 Noroeste 0.2 -- -- 86
2020-06-16 10:00:00 11.6 7 Noroeste 17 Noroeste 0.2 -- -- 84
2020-06-16 09:00:00 12.1 6 Noroeste 12 Oeste 0.2 -- -- 86
2020-06-16 08:00:00 11.6 4 Noroeste 14 Noroeste 0 -- -- 87
2020-06-16 07:00:00 12.1 4 Norte 11 Norte 0 -- -- 86
2020-06-16 06:00:00 12.2 6 Norte 11 Norte 0 -- -- 88
2020-06-16 05:00:00 11.5 3 Oeste 9 Oeste 0 -- -- 88
2020-06-16 04:00:00 10.7 3 Oeste 8 Oeste 0 -- -- 88
2020-06-16 03:00:00 11.1 6 Oeste 10 Oeste 0 -- -- 85
2020-06-16 02:00:00 10.8 3 Oeste 8 Oeste 0 -- -- 86
2020-06-16 01:00:00 11.2 0 Calma 8 Oeste 0 -- -- 84
2020-06-16 00:00:00 12.7 2 Sudoeste 6 Nordeste 0 -- -- 79